Temp     Hi    Low   Out    Dew  Wind  Wind   Wind    Hi    Hi   Wind   Heat    THW   THSW                Rain  Solar   Solar Hi Solar   UV    UV    Hi     Heat    Cool    In     In    In     In           Wind  Wind    ISS   Arc.
  Date    Time     Out   Temp   Temp   Hum    Pt. Speed   Dir    Run Speed   Dir  Chill  Index  Index  Index   Bar    Rain  Rate   Rad.  Energy    Rad.  Index  Dose   UV     D-D     D-D    Temp   Hum    Dew   Heat     ET   Samp   Tx   Recept  Int.
---------------------------------------------------------------------------------------------------------------------------------------------------------------------------------------------------------------------------------------------------------
10/18/17 12:30a   56.5   57.3   56.2    43   34.3   0.0   ---   0.00   0.0   ---   56.5   54.2   54.2   49.3  30.094  0.00  0.00     0     0.00      0     0.0  0.00   0.0   0.177   0.000   75.6    27   39.2   73.9   0.000   675    2    100.0   30 
10/18/17  1:00a   55.8   56.7   55.3    41   32.4   0.0   ---   0.00   0.0   ---   55.8   53.4   53.4   48.5  30.094  0.00  0.00     0     0.00      0     0.0  0.00   0.0   0.192   0.000   75.2    27   38.9   73.3   0.002   676    2    100.0   30 
10/18/17  1:30a   54.2   56.0   53.4    39   29.8   0.0   ---   0.00   0.0   ---   54.2   51.9   51.9   46.9  30.096  0.00  0.00     0     0.00      0     0.0  0.00   0.0   0.225   0.000   75.0    27   38.7   73.1   0.000   684    2    100.0   30 
10/18/17  2:00a   53.2   54.3   53.2    43   31.3   0.0   ---   0.00   0.0   ---   53.2   51.2   51.2   46.2  30.091  0.00  0.00     0     0.00      0     0.0  0.00   0.0   0.246   0.000   74.7    27   38.5   72.7   0.002   672    2    100.0   30 
10/18/17  2:30a   52.8   53.5   51.9    46   32.6   0.0   ---   0.00   0.0   ---   52.8   51.1   51.1   46.2  30.081  0.00  0.00     0     0.00      0     0.0  0.00   0.0   0.254   0.000   74.5    27   38.3   72.5   0.000   682    2    100.0   30 
10/18/17  3:00a   49.6   53.1   49.6    50   31.7   0.0   ---   0.00   0.0   ---   49.6   48.4   48.4   43.4  30.074  0.00  0.00     0     0.00      0     0.0  0.00   0.0   0.321   0.000   74.3    27   38.1   72.3   0.002   680    2    100.0   30 
10/18/17  3:30a   52.0   52.2   49.6    43   30.2   0.0   ---   0.00   0.0   ---   52.0   50.2   50.2   45.2  30.068  0.00  0.00     0     0.00      0     0.0  0.00   0.0   0.271   0.000   74.0    27   37.9   71.9   0.000   672    2    100.0   30 
10/18/17  4:00a   54.8   54.8   51.7    45   33.8   0.0   ---   0.00   0.0   ---   54.8   52.7   52.7   47.8  30.063  0.00  0.00     0     0.00      0     0.0  0.00   0.0   0.213   0.000   73.8    27   37.7   71.6   0.002   682    2    100.0   30 
10/18/17  4:30a   52.8   54.9   52.6    45   32.0   0.0   ---   0.00   0.0   ---   52.8   51.0   51.0   46.1  30.065  0.00  0.00     0     0.00      0     0.0  0.00   0.0   0.254   0.000   73.5    27   37.5   71.2   0.000   684    2    100.0   30 
10/18/17  5:00a   53.5   53.9   52.8    45   32.7   0.0   ---   0.00   0.0   ---   53.5   51.6   51.6   46.7  30.062  0.00  0.00     0     0.00      0     0.0  0.00   0.0   0.240   0.000   73.3    27   37.3   70.9   0.002   670    2    100.0   30 
10/18/17  5:30a   52.3   54.3   52.3    47   32.6   0.0    NW   0.00   4.0    NW   52.3   50.7   50.7   45.8  30.065  0.00  0.00     0     0.00      0     0.0  0.00   0.0   0.265   0.000   73.1    27   37.1   70.6   0.000   682    2    100.0   30 
10/18/17  6:00a   52.7   53.3   52.2    47   33.0   0.0   ---   0.00   0.0   ---   52.7   51.0   51.0   46.1  30.062  0.00  0.00     0     0.00      0     0.0  0.00   0.0   0.256   0.000   73.0    27   37.0   70.4   0.002   685    2    100.0   30 
10/18/17  6:30a   53.2   53.6   52.7    48   34.0   0.0   ---   0.00   0.0   ---   53.2   51.5   51.5   46.6  30.059  0.00  0.00     0     0.00      0     0.0  0.00   0.0   0.246   0.000   72.6    27   36.7   69.8   0.000   670    2    100.0   30 
10/18/17  7:00a   53.2   54.3   52.9    49   34.5   0.0   ---   0.00   0.0   ---   53.2   51.5   51.5   46.6  30.053  0.00  0.00     0     0.00      0     0.0  0.00   0.0   0.246   0.000   72.4    27   36.5   69.4   0.000   684    2    100.0   30 
10/18/17  7:30a   54.0   54.0   53.1    48   34.7   0.0   ---   0.00   0.0   ---   54.0   52.2   52.2   47.5  30.057  0.00  0.00     7     0.30     26     0.0  0.00   0.0   0.229   0.000   72.3    27   36.4   69.3   0.002   683    2    100.0   30 
10/18/17  8:00a   54.9   55.3   54.1    48   35.6   0.0   ---   0.00   0.0   ---   54.9   53.0   53.0   51.9  30.057  0.00  0.00    43     1.85     67     0.0  0.00   0.0   0.210   0.000   72.3    28   37.4   69.4   0.001   674    2    100.0   30 
10/18/17  8:30a   55.9   55.9   54.9    46   35.4   0.0   ---   0.00   0.0   ---   55.9   53.8   53.8   54.7  30.064  0.00  0.00    93     4.00    130     0.0  0.00   0.0   0.190   0.000   72.3    29   38.2   69.5   0.000   686    2    100.0   30 
10/18/17  9:00a   60.6   60.6   56.0    43   38.0   0.0   ---   0.00   0.0   ---   60.6   58.1   58.1   60.5  30.065  0.00  0.00   142     6.11    160     0.0  0.00   0.0   0.092   0.000   72.6    29   38.5   70.0   0.003   680    2    100.0   30 
10/18/17  9:30a   62.2   62.2   60.6    37   35.6   0.0   ---   0.00   0.0   ---   62.2   59.2   59.2   59.5  30.065  0.00  0.00    94     4.04    132     0.2  0.03   0.6   0.058   0.000   72.8    30   39.5   70.4   0.000   673    2    100.0   30 
10/18/17 10:00a   66.1   66.1   62.2    29   32.9   0.0   ---   0.00   0.0   ---   66.1   62.3   62.3   65.4  30.062  0.00  0.00   203     8.73    418     0.9  0.14   1.3   0.000   0.023   73.3    30   40.0   71.2   0.004   682    2    100.0   30 
10/18/17 10:30a   69.0   69.0   66.1    23   29.6   1.0    NW   0.50   5.0    NW   69.0   64.6   64.6   66.3  30.058  0.00  0.00   166     7.14    515     1.4  0.22   2.3   0.000   0.083   73.6    30   40.2   71.7   0.000   676    2    100.0   30 
10/18/17 11:00a   68.9   69.2   68.5    25   31.6   4.0    NW   2.00   9.0    NW   68.9   64.7   64.7   68.3  30.059  0.00  0.00   257    11.05    431     1.9  0.31   2.4   0.000   0.081   74.2    29   39.9   72.4   0.007   678    2    100.0   30 
10/18/17 11:30a   69.7   69.7   68.0    27   34.2   7.0    NW   3.50  15.0    NW   69.7   65.8   65.8   70.1  30.056  0.00  0.00   302    12.99    596     2.3  0.37   3.4   0.000   0.098   74.3    29   40.0   72.5   0.000   682    2    100.0   30 
10/18/17 12:00p   70.8   71.4   69.8    29   37.0   8.0   NNW   4.00  16.0   NNW   70.3   67.4   66.9   75.2  30.051  0.00  0.00   722    31.05    802     3.7  0.59   4.1   0.000   0.121   74.5    29   40.1   72.7   0.017   675    2    100.0   30 
10/18/17 12:30p   69.9   71.0   69.2    28   35.3   6.0   NNW   3.00  12.0   NNW   69.9   66.1   66.1   69.8  30.044  0.00  0.00   281    12.08    527     2.7  0.43   4.4   0.000   0.102   74.7    28   39.4   72.8   0.000   678    2    100.0   30 
10/18/17  1:00p   72.9   73.0   69.9    25   35.0   5.0   NNW   2.50  13.0   NNW   72.9   70.0   70.0   79.1  30.032  0.00  0.00   845    36.34    898     4.6  0.74   4.8   0.000   0.165   74.9    27   38.7   72.9   0.017   684    2    100.0   30 
10/18/17  1:30p   71.3   73.6   71.3    25   33.6   9.0   NNW   4.50  16.0   NNW   69.9   67.7   66.3   74.2  30.023  0.00  0.00   595    25.59    867     3.6  0.58   4.9   0.000   0.131   74.9    25   36.7   72.8   0.000   669    2    100.0   30 
10/18/17  2:00p   71.3   72.8   71.3    25   33.6   9.0   NNW   4.50  16.0   NNW   69.9   67.7   66.3   72.7  30.018  0.00  0.00   462    19.87    798     3.0  0.48   4.0   0.000   0.131   75.0    24   35.7   72.8   0.020   683    2    100.0   30 
10/18/17  2:30p   71.7   71.8   70.3    25   34.0   8.0   NNW   4.00  14.0   NNW   71.2   68.2   67.7   72.9  30.009  0.00  0.00   361    15.53    786     2.2  0.35   3.4   0.000   0.140   75.0    25   36.8   72.9   0.000   682    2    100.0   30 
10/18/17  3:00p   72.0   72.5   71.5    25   34.2   8.0   NNW   4.00  16.0   NNW   71.5   68.6   68.1   74.6  30.001  0.00  0.00   425    18.28    670     2.0  0.32   2.6   0.000   0.146   75.2    25   36.9   73.2   0.016   672    2    100.0   30 
10/18/17  3:30p   69.2   72.1   69.0    30   36.4  11.0   NNW   5.50  19.0   NNW   66.6   65.6   63.0   66.7  29.999  0.00  0.00   273    11.74    512     1.1  0.18   1.8   0.000   0.087   75.2    25   36.9   73.2   0.000   682    2    100.0   30 
10/18/17  4:00p   71.2   71.2   68.8    29   37.3   7.0   NNW   3.50  15.0   NNW   71.2   67.9   67.9   74.5  29.999  0.00  0.00   356    15.31    490     0.8  0.13   1.1   0.000   0.129   75.0    26   37.8   73.0   0.013   679    2    100.0   30 
10/18/17  4:30p   69.2   71.4   69.2    30   36.4   4.0   NNW   2.00  11.0   NNW   69.2   65.6   65.6   71.6  30.002  0.00  0.00   293    12.60    410     0.0  0.00   0.5   0.000   0.087   75.2    29   40.7   73.5   0.000   676    2    100.0   30 
10/18/17  5:00p   68.9   69.2   68.6    30   36.2   6.0   NNW   3.00  14.0   NNW   68.9   65.3   65.3   69.2  30.004  0.00  0.00   193     8.30    364     0.0  0.00   0.0   0.000   0.081   75.0    26   37.8   73.0   0.009   684    2    100.0   30 
10/18/17  5:30p   66.8   68.9   66.8    31   35.2   8.0   NNW   4.00  14.0   NNW   66.2   63.3   62.7   65.4  30.007  0.00  0.00   150     6.45    241     0.0  0.00   0.0   0.000   0.038   75.0    26   37.8   73.0   0.000   674    2    100.0   30 
10/18/17  6:00p   64.9   66.7   64.9    31   33.5   6.0   NNW   3.00  12.0   NNW   64.9   61.3   61.3   59.3  30.007  0.00  0.00    22     0.95     33     0.0  0.00   0.0   0.002   0.000   74.7    26   37.5   72.6   0.007   682    2    100.0   30 
10/18/17  6:30p   63.2   64.9   63.2    32   32.8   2.0   NNW   1.00  10.0   NNW   63.2   59.7   59.7   55.9  30.009  0.00  0.00     4     0.17     12     0.0  0.00   0.0   0.037   0.000   75.0    27   38.7   73.1   0.000   683    2    100.0   30 
10/18/17  7:00p   61.8   63.4   61.7    33   32.4   0.0   ---   0.00   0.0   ---   61.8   58.4   58.4   54.5  30.014  0.00  0.00     0     0.00      0     0.0  0.00   0.0   0.067   0.000   75.4    27   39.1   73.6   0.001   669    2    100.0   30 
10/18/17  7:30p   58.7   62.0   58.7    38   33.1   0.0   ---   0.00   0.0   ---   58.7   55.9   55.9   52.0  30.020  0.00  0.00     0     0.00      0     0.0  0.00   0.0   0.131   0.000   75.6    27   39.2   73.9   0.000   684    2    100.0   30 
10/18/17  8:00p   56.0   58.7   55.7    39   31.4   0.0   ---   0.00   0.0   ---   56.0   53.4   53.4   49.5  30.019  0.00  0.00     0     0.00      0     0.0  0.00   0.0   0.188   0.000   75.7    28   40.3   74.0   0.002   682    2    100.0   30 
10/18/17  8:30p   55.6   56.8   55.4    39   31.0   0.0   ---   0.00   0.0   ---   55.6   53.1   53.1   49.2  30.022  0.00  0.00     0     0.00      0     0.0  0.00   0.0   0.196   0.000   75.7    28   40.3   74.0   0.000   673    2    100.0   30 
10/18/17  9:00p   54.4   55.6   53.8    37   28.6   0.0   ---   0.00   0.0   ---   54.4   52.0   52.0   48.0  30.024  0.00  0.00     0     0.00      0     0.0  0.00   0.0   0.221   0.000   75.7    28   40.3   74.0   0.002   683    2    100.0   30 
10/18/17  9:30p   54.1   54.6   53.1    37   28.4   0.0   ---   0.00   0.0   ---   54.1   51.7   51.7   47.7  30.025  0.00  0.00     0     0.00      0     0.0  0.00   0.0   0.227   0.000   75.6    29   41.1   74.0   0.000   677    2    100.0   30 
10/18/17 10:00p   53.0   54.0   52.7    40   29.3   0.0   ---   0.00   0.0   ---   53.0   50.9   50.9   46.9  30.023  0.00  0.00     0     0.00      0     0.0  0.00   0.0   0.250   0.000   75.6    29   41.1   74.0   0.002   675    2    100.0   30 
10/18/17 10:30p   52.3   53.3   52.3    37   26.8   0.0   ---   0.00   0.0   ---   52.3   50.2   50.2   46.1  30.027  0.00  0.00     0     0.00      0     0.0  0.00   0.0   0.265   0.000   75.2    28   39.8   73.4   0.000   683    2    100.0   30 
10/18/17 11:00p   51.2   52.3   51.2    37   25.8   0.0   ---   0.00   0.0   ---   51.2   49.3   49.3   45.2  30.029  0.00  0.00     0     0.00      0     0.0  0.00   0.0   0.287   0.000   74.9    29   40.5   73.1   0.002   677    2    100.0   30 
10/18/17 11:30p   52.1   52.1   50.6    41   29.1   0.0   ---   0.00   0.0   ---   52.1   50.2   50.2   46.2  30.023  0.00  0.00     0     0.00      0     0.0  0.00   0.0   0.269   0.000   74.5    29   40.1   72.7   0.000   678    2    100.0   30 
10/19/17 12:00a   51.0   52.7   51.0    36   25.0   0.0   ---   0.00   0.0   ---   51.0   49.1   49.1   45.0  30.016  0.00  0.00     0     0.00      0     0.0  0.00   0.0   0.292   0.000   74.3    31   41.7   72.7   0.002   685    2    100.0   30 
10/19/17 12:30a   50.7   51.3   49.6    34   23.3   0.0   ---   0.00   0.0   ---   50.7   48.8   48.8   44.6  30.016  0.00  0.00     0     0.00      0     0.0  0.00   0.0   0.298   0.000   74.0    32   42.3   72.5   0.000   672    2    100.0   30 
10/19/17  1:00a   50.7   50.7   50.0    37   25.3   0.0   ---   0.00   0.0   ---   50.7   48.9   48.9   44.8  30.005  0.00  0.00     0     0.00      0     0.0  0.00   0.0   0.298   0.000   73.6    31   41.1   71.7   0.002   627    2     94.0   30 
10/19/17  1:30a   49.4   50.8   49.1    38   24.8   0.0   ---   0.00   0.0   ---   49.4   47.8   47.8   43.7  30.004  0.00  0.00     0     0.00      0     0.0  0.00   0.0   0.325   0.000   73.5    31   41.0   71.6   0.000   683    2    100.0   30 
10/19/17  2:00a   50.2   50.3   48.8    39   26.2   0.0   ---   0.00   0.0   ---   50.2   48.6   48.6   44.5  30.005  0.00  0.00     0     0.00      0     0.0  0.00   0.0   0.308   0.000   73.1    30   39.8   70.9   0.002   676    2    100.0   30 
10/19/17  2:30a   49.7   50.3   49.0    43   28.1   0.0   ---   0.00   0.0   ---   49.7   48.3   48.3   44.3  30.008  0.00  0.00     0     0.00      0     0.0  0.00   0.0   0.319   0.000   72.8    30   39.5   70.4   0.000   676    2    100.0   30 
10/19/17  3:00a   49.7   49.9   48.2    43   28.1   0.0   ---   0.00   0.0   ---   49.7   48.3   48.3   44.3  29.994  0.00  0.00     0     0.00      0     0.0  0.00   0.0   0.319   0.000   72.4    30   39.2   69.7   0.002   686    2    100.0   30 
10/19/17  3:30a   48.9   50.1   48.7    43   27.4   0.0   ---   0.00   0.0   ---   48.9   47.5   47.5   43.5  29.987  0.00  0.00     0     0.00      0     0.0  0.00   0.0   0.335   0.000   72.3    30   39.1   69.6   0.000   674    2    100.0   30 
10/19/17  4:00a   47.0   48.9   46.9    47   27.8   0.0   ---   0.00   0.0   ---   47.0   45.7   45.7   41.7  29.985  0.00  0.00     0     0.00      0     0.0  0.00   0.0   0.375   0.000   71.9    30   38.8   69.0   0.001   677    2    100.0   30 
10/19/17  4:30a   46.5   49.2   46.3    46   26.8   0.0   ---   0.00   0.0   ---   46.5   45.2   45.2   41.1  29.989  0.00  0.00     0     0.00      0     0.0  0.00   0.0   0.385   0.000   71.8    30   38.7   68.8   0.000   684    2    100.0   30 
10/19/17  5:00a   46.3   48.0   45.4    49   28.2   0.0   ---   0.00   0.0   ---   46.3   45.1   45.1   41.1  29.991  0.00  0.00     0     0.00      0     0.0  0.00   0.0   0.390   0.000   71.4    30   38.3   68.3   0.001   675    2    100.0   30 
10/19/17  5:30a   47.2   48.2   46.3    48   28.5   0.0   ---   0.00   0.0   ---   47.2   46.0   46.0   42.0  29.986  0.00  0.00     0     0.00      0     0.0  0.00   0.0   0.371   0.000   71.2    30   38.2   68.0   0.000   679    2    100.0   30 
10/19/17  6:00a   46.5   47.4   45.7    50   28.8   0.0   ---   0.00   0.0   ---   46.5   45.3   45.3   41.3  29.989  0.00  0.00     0     0.00      0     0.0  0.00   0.0   0.385   0.000   70.9    30   37.9   67.6   0.001   656    2     98.4   30 
10/19/17  6:30a   46.7   47.9   46.1    49   28.5   0.0   ---   0.00   0.0   ---   46.7   45.5   45.5   41.5  29.990  0.00  0.00     0     0.00      0     0.0  0.00   0.0   0.381   0.000   70.7    30   37.7   67.3   0.000   673    2    100.0   30 
10/19/17  7:00a   44.4   47.2   44.4    51   27.4   0.0   ---   0.00   0.0   ---   44.4   43.3   43.3   39.3  29.995  0.00  0.00     0     0.00      0     0.0  0.00   0.0   0.429   0.000   70.4    30   37.5   66.9   0.000   682    2    100.0   30 
10/19/17  7:30a   45.7   45.7   43.6    48   27.1   0.0   ---   0.00   0.0   ---   45.7   44.5   44.5   40.7  29.999  0.00  0.00     9     0.39     19     0.0  0.00   0.0   0.402   0.000   70.2    30   37.3   66.7   0.000   684    2    100.0   30 
10/19/17  8:00a   49.8   50.3   45.6    50   31.9   0.0   ---   0.00   0.0   ---   49.8   48.6   48.6   45.3  30.003  0.00  0.00    27     1.16     33     0.0  0.00   0.0   0.317   0.000   70.1    30   37.2   66.5   0.001   670    2    100.0   30 
10/19/17  8:30a   53.7   53.7   49.9    46   33.4   0.0   ---   0.00   0.0   ---   53.7   51.8   51.8   50.6  30.009  0.00  0.00    41     1.76     47     0.0  0.00   0.0   0.235   0.000   70.2    30   37.3   66.7   0.000   677    2    100.0   30 
10/19/17  9:00a   56.3   56.3   53.7    42   33.5   0.0   NNW   0.00   1.0   NNW   56.3   53.9   53.9   55.5  30.007  0.00  0.00   120     5.16    255     0.0  0.00   0.5   0.181   0.000   71.1    31   38.9   67.9   0.002   686    2    100.0   30 
10/19/17  9:30a   58.7   58.7   56.3    37   32.5   2.0   NNW   1.00   6.0   NNW   58.7   55.8   55.8   57.0  30.012  0.00  0.00   121     5.20    257     0.3  0.05   0.6   0.131   0.000   71.6    31   39.3   68.6   0.000   685    2    100.0   30 
10/19/17 10:00a   59.2   59.4   58.7    37   32.9   4.0   NNW   2.00  10.0   NNW   59.2   56.3   56.3   60.1  30.007  0.00  0.00   228     9.81    417     0.9  0.14   1.2   0.121   0.000   72.3    32   40.8   69.8   0.005   671    2    100.0   30 
10/19/17 10:30a   60.0   60.1   59.2    38   34.3   3.0   NNW   1.50  10.0   NNW   60.0   57.1   57.1   60.0  30.005  0.00  0.00   208     8.95    508     1.5  0.24   2.2   0.104   0.000   72.6    31   40.2   70.2   0.000   683    2    100.0   30 
10/19/17 11:00a   61.8   61.8   60.0    37   35.2   5.0   NNW   2.50  15.0   NNW   61.8   58.8   58.8   64.7  30.004  0.00  0.00   357    15.35    555     2.2  0.35   2.6   0.067   0.000   73.1    31   40.7   71.0   0.008   684    2    100.0   30 
10/19/17 11:30a   63.5   63.5   61.8    36   36.0  10.0   NNW   5.00  18.0   NNW   61.1   60.4   58.0   64.2  30.001  0.00  0.00   448    19.27    661     2.5  0.40   3.4   0.031   0.000   73.5    30   40.2   71.5   0.000   672    2    100.0   30 
10/19/17 12:00p   66.2   66.2   63.4    31   34.7  10.0   NNW   5.00  19.0   NNW   64.2   62.7   60.7   68.6  29.989  0.00  0.00   670    28.81    686     3.6  0.58   3.7   0.000   0.025   73.6    31   41.1   71.7   0.018   682    2    100.0   30 
10/19/17 12:30p   66.2   66.8   66.0    29   33.0  11.0   NNW   5.50  18.0    NW   63.5   62.4   59.7   67.3  29.984  0.00  0.00   689    29.63    703     3.8  0.61   3.9   0.000   0.025   73.3    27   37.3   70.9   0.000   685    2    100.0   30 
10/19/17  1:00p   66.7   66.7   65.8    30   34.3  12.0   NNW   6.00  21.0   NNW   63.4   63.1   59.8   67.3  29.976  0.00  0.00   681    29.29    707     3.9  0.63   4.0   0.000   0.035   73.0    26   36.1   70.3   0.022   670    2    100.0   30 
10/19/17  1:30p   66.7   66.9   65.8    25   29.7  13.0   NNW   6.50  22.0   NNW   62.9   62.0   58.2   65.3  29.970  0.00  0.00   698    30.02    707     3.8  0.61   3.9   0.000   0.035   72.8    24   33.9   69.8   0.000   684    2    100.0   30 
10/19/17  2:00p   67.0   67.2   66.2    23   27.9  13.0   NNW   6.50  21.0   NNW   63.3   62.1   58.4   65.4  29.963  0.00  0.00   691    29.72    708     3.5  0.56   3.7   0.000   0.042   72.4    23   32.5   69.0   0.024   683    2    100.0   30 
10/19/17  2:30p   66.8   67.6   66.8    23   27.8  13.0   NNW   6.50  22.0   NNW   63.1   61.9   58.2   65.1  29.960  0.00  0.00   660    28.38    687     3.0  0.48   3.3   0.000   0.038   72.8    26   35.9   70.0   0.000   673    2    100.0   30 
10/19/17  3:00p   67.3   67.6   66.5    22   27.1  11.0   NNW   5.50  20.0   NNW   64.7   62.5   59.9   67.2  29.953  0.00  0.00   602    25.89    636     2.3  0.37   2.7   0.000   0.048   73.3    26   36.3   70.8   0.000   683    2    100.0   30 
10/19/17  3:30p   67.2   67.9   67.0    22   27.0   9.0   NNW   4.50  17.0   NNW   65.9   62.3   61.0   68.7  29.951  0.00  0.00   533    22.92    566     1.6  0.26   2.0   0.000   0.046   73.6    26   36.6   71.2   0.022   676    2    100.0   30 
10/19/17  4:00p   67.6   67.7   66.9    22   27.4  10.0   NNW   5.00  16.0   NNW   65.5   62.9   60.8   67.8  29.945  0.00  0.00   455    19.57    492     1.0  0.16   1.3   0.000   0.054   73.8    26   36.8   71.5   0.018   676    2    100.0   30 
10/19/17  4:30p   68.4   68.4   67.3    22   28.0   7.0    NW   3.50  15.0   NNW   68.4   63.8   63.8   70.9  29.941  0.00  0.00   372    16.00    415     0.3  0.05   0.7   0.000   0.071   74.2    27   38.1   72.2   0.000   684    2    100.0   30 
10/19/17  5:00p   67.4   68.5   67.4    25   30.3  10.0   WNW   5.00  22.0   WNW   65.4   62.9   60.9   66.0  29.941  0.00  0.00   277    11.91    327     0.0  0.00   0.0   0.000   0.050   74.2    27   38.1   72.2   0.013   673    2    100.0   30 
10/19/17  5:30p   65.6   67.4   65.6    28   31.6   9.0   WNW   4.50  20.0   WNW   64.3   61.6   60.3   62.4  29.933  0.00  0.00   138     5.93    216     0.0  0.00   0.0   0.000   0.012   74.2    26   37.1   72.1   0.000   681    2    100.0   30 
10/19/17  6:00p   63.6   65.6   63.6    37   36.8   7.0    NW   3.50  15.0   NNW   63.6   60.6   60.6   58.3  29.931  0.00  0.00    15     0.65     19     0.0  0.00   0.0   0.029   0.000   74.2    28   39.0   72.3   0.007   682    2    100.0   30 
10/19/17  6:30p   60.9   63.5   60.9    26   25.7   6.0   NNW   3.00  12.0   NNW   60.7   56.8   56.6   52.6  29.932  0.00  0.00     3     0.13      9     0.0  0.00   0.0   0.085   0.000   74.3    30   40.8   72.6   0.000   671    2    100.0   30 
10/19/17  7:00p   59.6   61.0   59.6    27   25.5   2.0   NNW   1.00   8.0    NW   59.6   55.7   55.7   51.7  29.929  0.00  0.00     0     0.00      0     0.0  0.00   0.0   0.113   0.000   74.7    30   41.2   73.0   0.003   682    2    100.0   30 
10/19/17  7:30p   59.5   59.8   59.1    32   29.6   1.0   NNW   0.50   3.0   NNW   59.5   56.2   56.2   52.3  29.935  0.00  0.00     0     0.00      0     0.0  0.00   0.0   0.115   0.000   75.0    32   43.1   73.5   0.000   677    2    100.0   30 
10/19/17  8:00p   61.0   61.1   59.0    47   40.6   2.0   WNW   1.00   9.0   WNW   61.0   58.8   58.8   55.2  29.931  0.00  0.00     0     0.00      0     0.0  0.00   0.0   0.083   0.000   75.2    32   43.3   73.7   0.003   675    2    100.0   30